createdAt,value
2023-03-06T00:00:37.238Z,25.27
2023-03-06T00:03:23.919Z,101.00
2023-03-06T00:06:08.902Z,54.80
2023-03-06T00:08:52.910Z,46.47
2023-03-06T00:11:37.210Z,38.57
2023-03-06T00:14:21.040Z,28.33
2023-03-06T00:17:05.226Z,23.97
2023-03-06T00:19:50.497Z,20.80
2023-03-06T00:22:34.649Z,22.53
2023-03-06T00:25:20.380Z,23.03
2023-03-06T00:28:04.338Z,19.50
2023-03-06T00:30:48.413Z,30.23
2023-03-06T00:33:32.490Z,35.50
2023-03-06T00:36:18.019Z,30.70
2023-03-06T00:39:02.303Z,27.97
2023-03-06T00:41:47.069Z,35.87
2023-03-06T00:44:31.854Z,29.30
2023-03-06T00:47:17.281Z,29.23
2023-03-06T00:50:01.570Z,22.90
2023-03-06T00:52:48.432Z,24.57
2023-03-06T00:55:33.664Z,19.60
2023-03-06T00:58:17.544Z,15.53
2023-03-06T01:01:01.362Z,15.03
2023-03-06T01:03:45.330Z,19.07
2023-03-06T01:06:30.410Z,16.93
2023-03-06T01:09:15.650Z,13.20
2023-03-06T01:12:00.211Z,13.53
2023-03-06T01:14:44.335Z,14.27
2023-03-06T01:17:28.324Z,12.93
2023-03-06T01:20:15.042Z,14.37
2023-03-06T01:22:59.423Z,11.07
2023-03-06T01:25:46.422Z,14.90
2023-03-06T01:28:31.053Z,13.50
2023-03-06T01:31:15.458Z,12.93
2023-03-06T01:33:59.564Z,10.93
2023-03-06T01:36:43.521Z,13.20
2023-03-06T01:39:29.073Z,13.50
2023-03-06T01:42:14.721Z,12.67
2023-03-06T01:45:02.330Z,12.13
2023-03-06T01:47:47.027Z,11.33
2023-03-06T01:50:31.097Z,12.70
2023-03-06T01:53:16.608Z,14.90
2023-03-06T01:56:00.857Z,10.57
2023-03-06T01:58:46.794Z,12.00
2023-03-06T02:01:31.884Z,11.30
2023-03-06T02:04:17.414Z,12.57
2023-03-06T02:07:05.042Z,10.90
2023-03-06T02:09:50.845Z,12.60
2023-03-06T02:12:35.321Z,11.13
2023-03-06T02:15:23.345Z,10.77
2023-03-06T02:18:07.322Z,12.23
2023-03-06T02:20:54.347Z,15.93
2023-03-06T02:23:52.488Z,15.63
2023-03-06T02:26:39.712Z,22.30
2023-03-06T02:29:26.557Z,23.50
2023-03-06T02:32:12.529Z,21.40
2023-03-06T02:34:58.832Z,21.67
2023-03-06T02:37:42.601Z,33.50
2023-03-06T02:40:26.899Z,36.40
2023-03-06T02:43:13.618Z,34.27
2023-03-06T02:45:57.867Z,19.90
2023-03-06T02:48:41.595Z,19.70
2023-03-06T02:51:25.836Z,23.23
2023-03-06T02:54:09.811Z,18.20
2023-03-06T02:56:54.007Z,18.20
2023-03-06T02:59:40.411Z,15.77
2023-03-06T03:02:25.334Z,18.70
2023-03-06T03:05:09.866Z,19.33
2023-03-06T03:07:59.085Z,15.33
2023-03-06T03:10:44.606Z,18.87
2023-03-06T03:13:30.948Z,13.83
2023-03-06T03:16:17.333Z,16.83
2023-03-06T03:19:01.916Z,14.57
2023-03-06T03:21:46.002Z,15.30
2023-03-06T03:24:30.289Z,13.53
2023-03-06T03:27:14.308Z,17.30
2023-03-06T03:29:59.323Z,14.53
2023-03-06T03:32:46.648Z,11.93
2023-03-06T03:35:30.647Z,11.90
2023-03-06T03:38:14.912Z,14.37
2023-03-06T03:40:59.205Z,13.37
2023-03-06T03:43:44.843Z,17.80
2023-03-06T03:46:29.535Z,13.17
2023-03-06T03:49:16.117Z,12.43
2023-03-06T03:52:01.560Z,12.20
2023-03-06T03:54:48.744Z,13.53
2023-03-06T03:57:33.014Z,13.17
2023-03-06T04:00:18.510Z,16.13
2023-03-06T04:03:12.636Z,12.37
2023-03-06T04:06:01.684Z,12.53
2023-03-06T04:08:45.832Z,11.93
2023-03-06T04:11:29.566Z,15.93
2023-03-06T04:14:13.892Z,11.27
2023-03-06T04:16:57.864Z,14.33
2023-03-06T04:19:42.371Z,18.63
2023-03-06T04:22:28.494Z,34.53
2023-03-06T04:25:12.859Z,23.63
2023-03-06T04:27:57.126Z,24.60
2023-03-06T04:30:41.334Z,22.13
2023-03-06T04:33:25.445Z,14.10
2023-03-06T04:36:24.856Z,14.07
2023-03-06T04:39:11.614Z,12.53
2023-03-06T04:41:55.766Z,15.87
2023-03-06T04:44:39.945Z,15.50
2023-03-06T04:47:24.085Z,16.60
2023-03-06T04:50:10.278Z,12.33
2023-03-06T04:52:54.574Z,14.50
2023-03-06T04:55:39.888Z,28.77
2023-03-06T04:58:25.704Z,12.77
2023-03-06T05:01:09.757Z,16.60
2023-03-06T05:03:53.687Z,12.33
2023-03-06T05:06:37.794Z,15.87
2023-03-06T05:09:21.669Z,8.63
2023-03-06T05:12:07.381Z,9.27
2023-03-06T05:14:51.280Z,9.27
2023-03-06T05:17:35.476Z,12.33
2023-03-06T05:20:19.552Z,11.97
2023-03-06T05:23:03.387Z,11.53
2023-03-06T05:25:47.052Z,16.13
2023-03-06T05:28:32.201Z,25.20
2023-03-06T05:31:15.995Z,19.10
2023-03-06T05:34:00.772Z,10.73
2023-03-06T05:36:44.979Z,14.90
2023-03-06T05:39:29.011Z,12.63
2023-03-06T05:42:13.074Z,12.63
2023-03-06T05:44:58.348Z,11.37
2023-03-06T05:47:42.250Z,10.90
2023-03-06T05:50:25.994Z,10.03
2023-03-06T05:53:09.811Z,12.90
2023-03-06T05:55:57.844Z,12.90
2023-03-06T05:58:41.751Z,12.20
2023-03-06T06:01:28.537Z,9.30
2023-03-06T06:04:12.529Z,10.90
2023-03-06T06:06:57.764Z,10.80
2023-03-06T06:09:41.911Z,10.53
2023-03-06T06:12:26.096Z,7.90
2023-03-06T06:15:10.505Z,9.13
2023-03-06T06:17:55.735Z,12.93
2023-03-06T06:20:39.740Z,11.03
2023-03-06T06:23:23.470Z,8.67
2023-03-06T06:26:09.727Z,8.57
2023-03-06T06:28:53.486Z,9.87
2023-03-06T06:31:37.913Z,7.87
2023-03-06T06:34:24.220Z,16.47
2023-03-06T06:37:08.361Z,18.60
2023-03-06T06:39:52.111Z,87.63
2023-03-06T06:42:39.901Z,10.17
2023-03-06T06:45:24.251Z,8.13
2023-03-06T06:48:08.369Z,9.40
2023-03-06T06:50:57.909Z,8.43
2023-03-06T06:53:41.711Z,11.63
2023-03-06T06:56:25.852Z,14.83
2023-03-06T06:59:16.556Z,16.40
2023-03-06T07:02:02.542Z,12.23
2023-03-06T07:05:02.135Z,16.03
2023-03-06T07:07:51.000Z,18.67
2023-03-06T07:10:35.700Z,22.63
2023-03-06T07:13:19.664Z,30.90
2023-03-06T07:16:03.526Z,10.87
2023-03-06T07:18:47.358Z,13.03
2023-03-06T07:21:31.423Z,15.90
2023-03-06T07:24:16.793Z,11.63
2023-03-06T07:27:00.640Z,9.37
2023-03-06T07:29:44.729Z,10.50
2023-03-06T07:32:28.779Z,19.90
2023-03-06T07:35:20.356Z,19.00
2023-03-06T07:38:04.818Z,12.57
2023-03-06T07:40:53.405Z,26.17
2023-03-06T07:43:37.160Z,12.13
2023-03-06T07:46:24.220Z,21.73
2023-03-06T07:49:08.056Z,14.20
2023-03-06T07:51:51.879Z,15.73
2023-03-06T07:54:35.643Z,24.37
2023-03-06T07:57:20.863Z,9.00
2023-03-06T08:00:06.212Z,8.27
2023-03-06T08:02:56.895Z,12.10
2023-03-06T08:05:40.801Z,9.17
2023-03-06T08:08:24.841Z,9.70
2023-03-06T08:11:09.933Z,6.77
2023-03-06T08:13:55.572Z,7.67
2023-03-06T08:16:39.492Z,7.77
2023-03-06T08:19:23.408Z,7.80
2023-03-06T08:22:07.830Z,8.00
2023-03-06T08:24:55.114Z,8.53
2023-03-06T08:27:39.082Z,8.63
2023-03-06T08:30:24.656Z,7.93
2023-03-06T08:33:08.590Z,7.90
2023-03-06T08:35:54.327Z,7.13
2023-03-06T08:38:38.086Z,7.43
2023-03-06T08:41:22.623Z,11.93
2023-03-06T08:44:06.958Z,8.63
2023-03-06T08:46:52.061Z,9.13
2023-03-06T08:49:36.266Z,11.30
2023-03-06T08:52:20.046Z,9.87
2023-03-06T08:55:04.411Z,9.30
2023-03-06T08:57:48.394Z,10.00
2023-03-06T09:00:32.323Z,10.57
2023-03-06T09:03:17.844Z,12.23
2023-03-06T09:06:01.667Z,12.97
2023-03-06T09:08:45.606Z,8.40
2023-03-06T09:11:29.950Z,9.73
2023-03-06T09:14:13.763Z,9.93
2023-03-06T09:16:57.790Z,15.40
2023-03-06T09:19:42.991Z,9.37
2023-03-06T09:22:26.917Z,10.33
2023-03-06T09:25:13.315Z,11.40
2023-03-06T09:28:10.479Z,10.27
2023-03-06T09:30:55.633Z,9.00
2023-03-06T09:33:39.863Z,8.23
2023-03-06T09:36:25.475Z,10.27
2023-03-06T09:39:10.113Z,7.40
2023-03-06T09:41:55.308Z,9.00
2023-03-06T09:44:43.354Z,11.23
2023-03-06T09:47:45.909Z,8.30
2023-03-06T09:50:41.777Z,8.53
2023-03-06T09:53:50.260Z,7.63
2023-03-06T09:56:36.908Z,10.13
2023-03-06T09:59:23.698Z,7.33
2023-03-06T10:02:17.079Z,9.17
2023-03-06T10:05:06.922Z,9.50
2023-03-06T10:07:56.128Z,10.10
2023-03-06T10:10:48.421Z,8.70
2023-03-06T10:13:40.340Z,8.53
2023-03-06T10:16:28.082Z,8.43
2023-03-06T10:19:16.059Z,7.70
2023-03-06T10:22:04.491Z,9.07
2023-03-06T10:24:55.859Z,8.63
2023-03-06T10:27:47.944Z,9.50
2023-03-06T10:30:42.601Z,9.03
2023-03-06T10:33:39.536Z,7.53
2023-03-06T10:36:27.170Z,8.30
2023-03-06T10:39:17.821Z,9.57
2023-03-06T10:42:01.997Z,9.17
2023-03-06T10:44:47.710Z,8.33
2023-03-06T10:47:35.375Z,10.40
2023-03-06T10:50:26.343Z,9.47
2023-03-06T10:53:21.752Z,12.60
2023-03-06T10:56:06.277Z,11.40
2023-03-06T10:59:10.717Z,13.63
2023-03-06T11:01:57.666Z,9.83
2023-03-06T11:04:47.158Z,12.83
2023-03-06T11:07:32.381Z,10.33
2023-03-06T11:10:19.451Z,11.13
2023-03-06T11:13:07.726Z,12.30
2023-03-06T11:15:59.419Z,9.53
2023-03-06T11:18:57.244Z,10.63
2023-03-06T11:21:41.562Z,11.83
2023-03-06T11:24:25.726Z,10.90
2023-03-06T11:27:22.769Z,11.40
2023-03-06T11:30:12.704Z,12.70
2023-03-06T11:33:00.726Z,13.03
2023-03-06T11:35:53.158Z,11.50
2023-03-06T11:38:44.036Z,11.20
2023-03-06T11:41:35.611Z,11.60
2023-03-06T11:44:27.259Z,13.37
2023-03-06T11:47:18.929Z,11.67
2023-03-06T11:50:16.374Z,10.77
2023-03-06T11:53:03.577Z,14.03
2023-03-06T11:55:57.156Z,11.03
2023-03-06T11:59:10.785Z,21.13
2023-03-06T12:02:05.217Z,11.27
2023-03-06T12:04:57.023Z,15.07
2023-03-06T12:07:50.786Z,14.27
2023-03-06T12:10:41.527Z,12.83
2023-03-06T12:13:42.091Z,15.73
2023-03-06T12:17:04.153Z,13.60
2023-03-06T12:19:59.780Z,15.60
2023-03-06T12:22:57.757Z,14.37
2023-03-06T12:25:57.846Z,12.10
2023-03-06T12:29:03.785Z,12.73
2023-03-06T12:31:59.521Z,13.30
2023-03-06T12:34:58.461Z,14.60
2023-03-06T12:37:52.076Z,12.80
2023-03-06T12:40:52.575Z,11.20
2023-03-06T12:44:01.744Z,16.37
2023-03-06T12:46:48.539Z,12.57
2023-03-06T12:49:38.830Z,13.80
2023-03-06T12:53:01.058Z,12.77
2023-03-06T12:55:43.405Z,17.27
2023-03-06T12:58:55.683Z,15.50
2023-03-06T13:01:48.845Z,10.53
2023-03-06T13:04:53.293Z,13.47
2023-03-06T13:08:00.074Z,10.33
2023-03-06T13:10:49.528Z,9.70
2023-03-06T13:13:35.438Z,11.00
2023-03-06T13:16:29.686Z,11.70
2023-03-06T13:19:19.563Z,11.90
2023-03-06T13:22:03.974Z,10.67
2023-03-06T13:24:49.469Z,10.80
2023-03-06T13:28:03.269Z,8.87
2023-03-06T13:30:47.458Z,11.73
2023-03-06T13:33:55.423Z,10.73
2023-03-06T13:36:39.906Z,12.47
2023-03-06T13:39:23.852Z,10.27
2023-03-06T13:42:08.287Z,13.37
2023-03-06T13:44:53.167Z,9.47
2023-03-06T13:48:10.668Z,8.97
2023-03-06T13:50:50.057Z,10.87
2023-03-06T13:54:04.958Z,7.73
2023-03-06T13:57:22.892Z,8.27
2023-03-06T14:00:29.513Z,9.57
2023-03-06T14:03:39.008Z,10.17
2023-03-06T14:06:59.054Z,9.30
2023-03-06T14:09:46.815Z,8.33
2023-03-06T14:12:34.973Z,8.93
2023-03-06T14:15:22.210Z,8.87
2023-03-06T14:18:08.432Z,7.37
2023-03-06T14:20:57.200Z,10.30
2023-03-06T14:23:43.556Z,7.53
2023-03-06T14:26:32.549Z,8.40
2023-03-06T14:29:22.242Z,5.97
2023-03-06T14:32:12.252Z,6.47
2023-03-06T14:34:56.510Z,7.20
2023-03-06T14:37:40.398Z,6.03
2023-03-06T14:40:31.175Z,8.03
2023-03-06T14:43:21.559Z,6.80
2023-03-06T14:46:07.401Z,7.83
2023-03-06T14:48:51.464Z,9.97
2023-03-06T14:51:41.911Z,8.27
2023-03-06T14:54:29.063Z,9.37
2023-03-06T14:57:16.568Z,6.50
2023-03-06T15:00:02.365Z,7.23
2023-03-06T15:02:48.133Z,9.13
2023-03-06T15:05:32.700Z,10.30
2023-03-06T15:08:21.850Z,6.63
2023-03-06T15:11:08.359Z,7.53
2023-03-06T15:14:02.761Z,9.40
2023-03-06T15:16:47.936Z,9.03
2023-03-06T15:19:40.649Z,8.20
2023-03-06T15:22:29.202Z,8.37
2023-03-06T15:25:26.803Z,7.10
2023-03-06T15:28:27.105Z,7.17
2023-03-06T15:31:23.012Z,8.03
2023-03-06T15:34:29.487Z,7.97
2023-03-06T15:37:29.022Z,8.30
2023-03-06T15:40:19.437Z,7.70
2023-03-06T15:43:03.889Z,8.27
2023-03-06T15:45:48.051Z,11.27
2023-03-06T15:48:32.060Z,8.30
2023-03-06T15:51:17.373Z,7.93
2023-03-06T15:54:11.828Z,8.20
2023-03-06T15:56:56.520Z,9.30
2023-03-06T15:59:44.200Z,12.53
2023-03-06T16:02:28.167Z,8.97
2023-03-06T16:05:16.392Z,10.20
2023-03-06T16:08:01.861Z,8.07
2023-03-06T16:10:46.957Z,12.40
2023-03-06T16:13:30.941Z,11.60
2023-03-06T16:16:19.452Z,15.77
2023-03-06T16:19:04.940Z,25.80
2023-03-06T16:21:49.042Z,26.40
2023-03-06T16:24:34.130Z,29.33
2023-03-06T16:27:19.892Z,18.83
2023-03-06T16:30:04.061Z,22.57
2023-03-06T16:32:48.148Z,35.70
2023-03-06T16:35:32.017Z,21.80
2023-03-06T16:38:16.844Z,16.00
2023-03-06T16:41:02.006Z,22.53
2023-03-06T16:43:45.989Z,17.63
2023-03-06T16:46:30.736Z,19.87
2023-03-06T16:49:22.510Z,24.73
2023-03-06T16:52:07.768Z,23.13
2023-03-06T16:54:51.527Z,14.63
2023-03-06T16:57:36.760Z,18.03
2023-03-06T17:00:22.415Z,20.47
2023-03-06T17:03:06.349Z,26.50
2023-03-06T17:05:50.597Z,23.50
2023-03-06T17:08:34.607Z,21.87
2023-03-06T17:11:20.401Z,23.73
2023-03-06T17:14:06.217Z,21.93
2023-03-06T17:16:50.060Z,45.07
2023-03-06T17:19:33.801Z,25.10
2023-03-06T17:22:18.141Z,34.50
2023-03-06T17:25:02.456Z,39.53
2023-03-06T17:27:47.214Z,23.10
2023-03-06T17:30:32.894Z,50.00
2023-03-06T17:33:16.760Z,33.90
2023-03-06T17:36:01.907Z,42.80
2023-03-06T17:38:46.341Z,37.83
2023-03-06T17:41:32.868Z,34.87
2023-03-06T17:44:17.246Z,18.33
2023-03-06T17:47:02.501Z,33.20
2023-03-06T17:49:46.836Z,22.63
2023-03-06T17:52:30.804Z,28.70
2023-03-06T17:55:14.639Z,32.20
2023-03-06T17:57:58.431Z,34.80
2023-03-06T18:00:42.693Z,23.37
2023-03-06T18:03:28.225Z,20.30
2023-03-06T18:06:12.453Z,30.00
2023-03-06T18:08:56.339Z,31.23
2023-03-06T18:11:40.123Z,26.47
2023-03-06T18:14:24.692Z,28.17
2023-03-06T18:17:09.045Z,28.23
2023-03-06T18:19:56.830Z,21.10
2023-03-06T18:22:40.709Z,25.03
2023-03-06T18:25:24.583Z,28.87
2023-03-06T18:28:08.535Z,33.40
2023-03-06T18:30:52.512Z,25.20
2023-03-06T18:33:36.768Z,34.43
2023-03-06T18:36:24.265Z,37.87
2023-03-06T18:39:10.039Z,33.73
2023-03-06T18:41:54.029Z,32.43
2023-03-06T18:44:37.815Z,25.17
2023-03-06T18:47:21.893Z,38.43
2023-03-06T18:50:06.402Z,16.33
2023-03-06T18:52:52.142Z,17.43
2023-03-06T18:55:36.019Z,20.10
2023-03-06T18:58:20.038Z,25.10
2023-03-06T19:01:07.804Z,43.77
2023-03-06T19:03:51.805Z,39.77
2023-03-06T19:06:37.983Z,29.80
2023-03-06T19:09:23.403Z,28.03
2023-03-06T19:12:08.907Z,29.63
2023-03-06T19:14:52.918Z,32.73
2023-03-06T19:17:37.856Z,28.43
2023-03-06T19:20:21.912Z,32.00
2023-03-06T19:23:05.679Z,36.10
2023-03-06T19:25:58.791Z,36.30
2023-03-06T19:28:43.961Z,30.57
2023-03-06T19:31:29.476Z,29.40
2023-03-06T19:34:13.405Z,19.90
2023-03-06T19:36:57.392Z,23.13
2023-03-06T19:39:41.698Z,20.90
2023-03-06T19:42:27.337Z,30.60
2023-03-06T19:45:11.700Z,52.87
2023-03-06T19:48:00.822Z,51.40
2023-03-06T19:50:44.824Z,45.57
2023-03-06T19:53:28.528Z,25.70
2023-03-06T19:56:17.195Z,21.60
2023-03-06T19:59:02.732Z,22.80
2023-03-06T20:01:46.591Z,20.33
2023-03-06T20:04:33.015Z,19.10
2023-03-06T20:07:16.985Z,35.20
2023-03-06T20:10:02.704Z,26.27
2023-03-06T20:12:46.949Z,22.57
2023-03-06T20:15:35.172Z,21.07
2023-03-06T20:18:19.240Z,21.73
2023-03-06T20:21:05.187Z,14.10
2023-03-06T20:23:51.097Z,17.40
2023-03-06T20:26:36.858Z,23.67
2023-03-06T20:29:21.096Z,20.47
2023-03-06T20:32:06.561Z,28.53
2023-03-06T20:34:50.423Z,20.90
2023-03-06T20:37:34.391Z,18.20
2023-03-06T20:40:18.492Z,11.90
2023-03-06T20:43:02.330Z,11.13
2023-03-06T20:45:57.400Z,14.13
2023-03-06T20:48:43.483Z,22.73
2023-03-06T20:51:30.425Z,18.30
2023-03-06T20:54:17.290Z,16.10
2023-03-06T20:57:01.317Z,13.83
2023-03-06T20:59:45.161Z,15.00
2023-03-06T21:02:28.895Z,14.53
2023-03-06T21:05:14.422Z,13.00
2023-03-06T21:07:58.141Z,14.57
2023-03-06T21:10:41.846Z,12.87
2023-03-06T21:13:25.802Z,14.07
2023-03-06T21:16:12.333Z,15.13
2023-03-06T21:18:57.107Z,13.33
2023-03-06T21:21:42.424Z,11.60
2023-03-06T21:24:26.218Z,12.53
2023-03-06T21:27:10.062Z,12.87
2023-03-06T21:29:53.783Z,15.70
2023-03-06T21:32:37.720Z,17.33
2023-03-06T21:35:21.791Z,17.80
2023-03-06T21:38:07.030Z,14.07
2023-03-06T21:40:50.786Z,13.43
2023-03-06T21:43:34.512Z,14.07
2023-03-06T21:46:18.356Z,13.00
2023-03-06T21:49:04.545Z,19.77
2023-03-06T21:51:48.367Z,15.73
2023-03-06T21:54:33.495Z,14.87
2023-03-06T21:57:17.288Z,15.03
2023-03-06T22:00:01.121Z,15.00
2023-03-06T22:02:45.369Z,15.47
2023-03-06T22:05:29.105Z,11.90
2023-03-06T22:08:12.823Z,15.80
2023-03-06T22:10:58.031Z,18.67
2023-03-06T22:13:42.470Z,17.23
2023-03-06T22:16:26.457Z,16.67
2023-03-06T22:19:10.301Z,14.23
2023-03-06T22:21:53.960Z,15.90
2023-03-06T22:24:37.746Z,15.57
2023-03-06T22:27:22.835Z,14.70
2023-03-06T22:30:07.759Z,17.87
2023-03-06T22:32:53.683Z,16.07
2023-03-06T22:35:37.487Z,15.13
2023-03-06T22:38:21.206Z,14.97
2023-03-06T22:41:05.644Z,13.97
2023-03-06T22:43:50.852Z,17.63
2023-03-06T22:46:34.709Z,20.47
2023-03-06T22:49:19.114Z,18.40
2023-03-06T22:52:02.849Z,22.30
2023-03-06T22:54:46.913Z,18.53
2023-03-06T22:57:31.043Z,20.03
2023-03-06T23:00:17.109Z,20.30
2023-03-06T23:03:01.280Z,19.97
2023-03-06T23:05:45.088Z,19.17
2023-03-06T23:08:28.890Z,16.60
2023-03-06T23:11:14.172Z,20.50
2023-03-06T23:14:17.831Z,21.37
2023-03-06T23:17:21.604Z,22.47
2023-03-06T23:20:24.435Z,24.23
2023-03-06T23:23:27.096Z,25.13
2023-03-06T23:26:14.648Z,24.10
2023-03-06T23:28:59.367Z,22.63
2023-03-06T23:31:43.189Z,22.67
2023-03-06T23:34:28.631Z,20.17
2023-03-06T23:37:12.393Z,21.27
2023-03-06T23:39:56.492Z,21.47
2023-03-06T23:42:40.481Z,19.00
2023-03-06T23:45:24.690Z,26.93
2023-03-06T23:48:09.278Z,21.90
2023-03-06T23:50:54.471Z,19.70
2023-03-06T23:53:38.108Z,21.40
2023-03-06T23:56:21.878Z,20.57
2023-03-06T23:59:05.774Z,20.00
